Anchorage, AK

10:57 AM AKST on December 28, 2014 (GMT -0900)
Anchorage | Change Station
CLOSE
Current Station
Airport
Location: Anchorage,
Elevation: 144 ft
Nearby Weather Stations

Elev 144 ft 61.17 °N, 150.03 °W | Updated 4 minutes ago

Overcast
Overcast
24 °F
Feels Like 17 °F
N
6
Wind Variable Wind from NNE

Today
High -- | Low -- °F
--% Chance of Precip.
Yesterday
High -- | Low -- °F
Precip. -- in
10:15 AM 3:48 PM
Waxing Crescent, 51% visible
Pressure 30.46 in
Visibility 10.0 miles
Clouds Mostly Cloudy 10000 ft
Overcast 20000 ft
Windchill 17 °F
Dew Point 18 °F
Humidity 77%
Rainfall 0.00 in
Snow Depth Not available.
UV 0 out of 12
Pollen Not available.
Air Quality Not available.
Flu Activity Not available.
METAR PANC 281953Z 03005KT 10SM BKN100 OVC200 M04/M08 A3045 RMK AO2 SLP315 T10441078

More Conditions Fewer Conditions

Pressure 30.46 in
Visibility 10.0 miles
Clouds Mostly Cloudy 10000 ft
Overcast 20000 ft
Windchill 17 °F
Dew Point 18 °F
Humidity 77%
Rainfall 0.00 in
Snow Depth Not available.
UV 0 out of 12
Pollen Not available.
Air Quality Not available.
Flu Activity Not available.
METAR PANC 281953Z 03005KT 10SM BKN100 OVC200 M04/M08 A3045 RMK AO2 SLP315 T10441078

More Conditions Fewer Conditions

10-Day Weather Forecast

Almanac

Astronomy

Dec. 28, 2014 Rise Set
Actual Time
Civil Twilight
Nautical Twilight
Astronomical Twilight
Moon
Length of Visible Light
Length of Day
Tomorrow will be .
, % of the Moon is Illuminated

Today's Extremes

State Highs State Lows

Community

WunderPhotos

Upload Photos

1,781,402 photos uploaded!

WunderBlogs® & News

Nearby

Air Quality

  Air Quality AQ Index Pollutant
Not available.

Snow Depth

Station Depth Elevation

Earthquake Activity

City Distance Mag. Time & Date
Minimum magnitude displayed is 2.5.

Coastal Water Temperatures

Place Temperature

Nearby Weather Stations